PWSweather.com
Personal Weather Stations
Station Observations
WD4JKH
Forsyth, GA 31029

Forsyth, GA 31029

Lat: 33.033225, Lon: -83.927995

Elevation: 709

Station Type: Davis Vantage VUE

High Low Average
Temperature 54.3°F12.4°C 39.8°F4.3°C 46.5°F8.1°C
Dew Point 29.2°F-1.6°C 22.7°F-5.2°C 25.4°F-3.7°C
Winds 10.9 mph 17.5 kmh 1.2 mph 1.9 kmh 5.0 mph SE8.0 kmh SE
Wind Gusts 18.0 mph29.0 kmh 5.0 mph8.0 kmh 11.0 mph17.7 kmh
Humidity 59% 32% 44%
Pressure 30.62 in1036.9 mb 30.44 in1030.8 mb -
Precipitation 0.00 in0.0 mm - -
Hour Temp Dew Point Humidity Winds Wind Gusts Pressure Precip Precip Rate Daily Precip Total
12:04 AM 43.3°F6.3°C 23.8°F-4.6°C 46% 4.6 mph NW7.4 kmh NW 12.0 mph19.3 kmh 30.44 in1030.8 mb 0.00 in0.0 mm 0.00 in0.0 mm 0.00 in0.0 mm
12:09 AM 43.2°F6.2°C 23.7°F-4.6°C 46% 4.8 mph NW7.7 kmh NW 12.0 mph19.3 kmh 30.44 in1030.8 mb 0.00 in0.0 mm 0.00 in0.0 mm 0.00 in0.0 mm
12:14 AM 43.2°F6.2°C 23.7°F-4.6°C 46% 5.3 mph NNW8.5 kmh NNW 12.0 mph19.3 kmh 30.44 in1030.8 mb 0.00 in0.0 mm 0.00 in0.0 mm 0.00 in0.0 mm
12:19 AM 43.1°F6.2°C 23.6°F-4.7°C 46% 3.1 mph NNW5.0 kmh NNW 12.0 mph19.3 kmh 30.44 in1030.8 mb 0.00 in0.0 mm 0.00 in0.0 mm 0.00 in0.0 mm
12:24 AM 43.1°F6.2°C 24.1°F-4.4°C 47% 5.2 mph NW8.4 kmh NW 11.0 mph17.7 kmh 30.45 in1031.2 mb 0.00 in0.0 mm 0.00 in0.0 mm 0.00 in0.0 mm
12:29 AM 43.0°F6.1°C 23.5°F-4.7°C 46% 3.3 mph NW5.3 kmh NW 11.0 mph17.7 kmh 30.45 in1031.2 mb 0.00 in0.0 mm 0.00 in0.0 mm 0.00 in0.0 mm
12:34 AM 42.9°F6.1°C 24.0°F-4.4°C 47% 4.6 mph NW7.4 kmh NW 11.0 mph17.7 kmh 30.45 in1031.2 mb 0.00 in0.0 mm 0.00 in0.0 mm 0.00 in0.0 mm
12:39 AM 42.9°F6.1°C 24.0°F-4.4°C 47% 4.1 mph NW6.6 kmh NW 11.0 mph17.7 kmh 30.45 in1031.2 mb 0.00 in0.0 mm 0.00 in0.0 mm 0.00 in0.0 mm
12:44 AM 42.9°F6.1°C 24.0°F-4.4°C 47% 4.2 mph NNW6.8 kmh NNW 10.0 mph16.1 kmh 30.45 in1031.2 mb 0.00 in0.0 mm 0.00 in0.0 mm 0.00 in0.0 mm
12:49 AM 42.9°F6.1°C 24.0°F-4.4°C 47% 4.7 mph NNW7.6 kmh NNW 10.0 mph16.1 kmh 30.45 in1031.2 mb 0.00 in0.0 mm 0.00 in0.0 mm 0.00 in0.0 mm
12:54 AM 42.9°F6.1°C 24.5°F-4.2°C 48% 2.5 mph NNW4.0 kmh NNW 10.0 mph16.1 kmh 30.45 in1031.2 mb 0.00 in0.0 mm 0.00 in0.0 mm 0.00 in0.0 mm
12:59 AM 42.9°F6.1°C 24.5°F-4.2°C 48% 3.5 mph NW5.6 kmh NW 10.0 mph16.1 kmh 30.45 in1031.2 mb 0.00 in0.0 mm 0.00 in0.0 mm 0.00 in0.0 mm
01:04 AM 42.8°F6.0°C 23.9°F-4.5°C 47% 3.6 mph NNW5.8 kmh NNW 10.0 mph16.1 kmh 30.45 in1031.2 mb 0.00 in0.0 mm 0.00 in0.0 mm 0.00 in0.0 mm
01:09 AM 42.8°F6.0°C 24.4°F-4.2°C 48% 3.7 mph NNW6.0 kmh NNW 10.0 mph16.1 kmh 30.45 in1031.2 mb 0.00 in0.0 mm 0.00 in0.0 mm 0.00 in0.0 mm
01:14 AM 42.7°F5.9°C 24.4°F-4.2°C 48% 4.4 mph NNW7.1 kmh NNW 11.0 mph17.7 kmh 30.45 in1031.2 mb 0.00 in0.0 mm 0.00 in0.0 mm 0.00 in0.0 mm
01:19 AM 42.8°F6.0°C 23.9°F-4.5°C 47% 4.3 mph N6.9 kmh N 11.0 mph17.7 kmh 30.45 in1031.2 mb 0.00 in0.0 mm 0.00 in0.0 mm 0.00 in0.0 mm
01:24 AM 42.8°F6.0°C 24.4°F-4.2°C 48% 2.3 mph NNW3.7 kmh NNW 11.0 mph17.7 kmh 30.45 in1031.2 mb 0.00 in0.0 mm 0.00 in0.0 mm 0.00 in0.0 mm
01:29 AM 42.6°F5.9°C 24.3°F-4.3°C 48% 2.1 mph NW3.4 kmh NW 11.0 mph17.7 kmh 30.45 in1031.2 mb 0.00 in0.0 mm 0.00 in0.0 mm 0.00 in0.0 mm
01:34 AM 42.6°F5.9°C 24.2°F-4.3°C 48% 2.9 mph NNW4.7 kmh NNW 9.0 mph14.5 kmh 30.45 in1031.2 mb 0.00 in0.0 mm 0.00 in0.0 mm 0.00 in0.0 mm
01:39 AM 42.5°F5.8°C 24.7°F-4.1°C 49% 3.2 mph NNW5.1 kmh NNW 7.0 mph11.3 kmh 30.46 in1031.5 mb 0.00 in0.0 mm 0.00 in0.0 mm 0.00 in0.0 mm
01:44 AM 42.4°F5.8°C 24.6°F-4.1°C 49% 2.3 mph NNW3.7 kmh NNW 7.0 mph11.3 kmh 30.46 in1031.5 mb 0.00 in0.0 mm 0.00 in0.0 mm 0.00 in0.0 mm
01:49 AM 42.3°F5.7°C 24.4°F-4.2°C 49% 4.5 mph NNW7.2 kmh NNW 8.0 mph12.9 kmh 30.46 in1031.5 mb 0.00 in0.0 mm 0.00 in0.0 mm 0.00 in0.0 mm
01:54 AM 42.3°F5.7°C 24.4°F-4.2°C 49% 2.8 mph NNW4.5 kmh NNW 9.0 mph14.5 kmh 30.45 in1031.2 mb 0.00 in0.0 mm 0.00 in0.0 mm 0.00 in0.0 mm
01:59 AM 42.4°F5.8°C 24.0°F-4.4°C 48% 4.2 mph N6.8 kmh N 9.0 mph14.5 kmh 30.46 in1031.5 mb 0.00 in0.0 mm 0.00 in0.0 mm 0.00 in0.0 mm
02:04 AM 42.4°F5.8°C 24.5°F-4.2°C 49% 3.9 mph NNW6.3 kmh NNW 9.0 mph14.5 kmh 30.46 in1031.5 mb 0.00 in0.0 mm 0.00 in0.0 mm 0.00 in0.0 mm
02:09 AM 42.3°F5.7°C 23.9°F-4.5°C 48% 3.5 mph NNW5.6 kmh NNW 9.0 mph14.5 kmh 30.46 in1031.5 mb 0.00 in0.0 mm 0.00 in0.0 mm 0.00 in0.0 mm
02:14 AM 42.2°F5.7°C 24.3°F-4.3°C 49% 2.8 mph NNW4.5 kmh NNW 9.0 mph14.5 kmh 30.46 in1031.5 mb 0.00 in0.0 mm 0.00 in0.0 mm 0.00 in0.0 mm
02:19 AM 42.1°F5.6°C 24.2°F-4.3°C 49% 4.2 mph NNW6.8 kmh NNW 12.0 mph19.3 kmh 30.46 in1031.5 mb 0.00 in0.0 mm 0.00 in0.0 mm 0.00 in0.0 mm
02:24 AM 42.0°F5.6°C 24.2°F-4.3°C 49% 2.5 mph N4.0 kmh N 12.0 mph19.3 kmh 30.46 in1031.5 mb 0.00 in0.0 mm 0.00 in0.0 mm 0.00 in0.0 mm
02:29 AM 41.9°F5.5°C 24.1°F-4.4°C 49% 2.0 mph NNW3.2 kmh NNW 12.0 mph19.3 kmh 30.46 in1031.5 mb 0.00 in0.0 mm 0.00 in0.0 mm 0.00 in0.0 mm
02:34 AM 41.7°F5.4°C 24.4°F-4.2°C 50% 2.3 mph N3.7 kmh N 12.0 mph19.3 kmh 30.46 in1031.5 mb 0.00 in0.0 mm 0.00 in0.0 mm 0.00 in0.0 mm
02:39 AM 41.7°F5.4°C 24.4°F-4.2°C 50% 2.5 mph NNW4.0 kmh NNW 9.0 mph14.5 kmh 30.46 in1031.5 mb 0.00 in0.0 mm 0.00 in0.0 mm 0.00 in0.0 mm
02:44 AM 41.6°F5.3°C 24.3°F-4.3°C 50% 2.2 mph N3.5 kmh N 9.0 mph14.5 kmh 30.46 in1031.5 mb 0.00 in0.0 mm 0.00 in0.0 mm 0.00 in0.0 mm
02:49 AM 41.6°F5.3°C 24.3°F-4.3°C 50% 2.5 mph N4.0 kmh N 9.0 mph14.5 kmh 30.46 in1031.5 mb 0.00 in0.0 mm 0.00 in0.0 mm 0.00 in0.0 mm
02:54 AM 41.6°F5.3°C 24.3°F-4.3°C 50% 3.5 mph N5.6 kmh N 9.0 mph14.5 kmh 30.46 in1031.5 mb 0.00 in0.0 mm 0.00 in0.0 mm 0.00 in0.0 mm
02:59 AM 41.5°F5.3°C 24.2°F-4.3°C 50% 2.4 mph N3.9 kmh N 9.0 mph14.5 kmh 30.47 in1031.8 mb 0.00 in0.0 mm 0.00 in0.0 mm 0.00 in0.0 mm
03:04 AM 41.5°F5.3°C 24.2°F-4.3°C 50% 2.0 mph NNW3.2 kmh NNW 9.0 mph14.5 kmh 30.47 in1031.8 mb 0.00 in0.0 mm 0.00 in0.0 mm 0.00 in0.0 mm
03:09 AM 41.4°F5.2°C 24.6°F-4.1°C 51% 2.2 mph NNW3.5 kmh NNW 9.0 mph14.5 kmh 30.47 in1031.8 mb 0.00 in0.0 mm 0.00 in0.0 mm 0.00 in0.0 mm
03:14 AM 41.4°F5.2°C 24.6°F-4.1°C 51% 3.1 mph NNW5.0 kmh NNW 7.0 mph11.3 kmh 30.47 in1031.8 mb 0.00 in0.0 mm 0.00 in0.0 mm 0.00 in0.0 mm
03:19 AM 41.3°F5.2°C 24.5°F-4.2°C 51% 1.6 mph N2.6 kmh N 7.0 mph11.3 kmh 30.47 in1031.8 mb 0.00 in0.0 mm 0.00 in0.0 mm 0.00 in0.0 mm
03:24 AM 41.2°F5.1°C 24.9°F-3.9°C 52% 1.6 mph NNW2.6 kmh NNW 7.0 mph11.3 kmh 30.47 in1031.8 mb 0.00 in0.0 mm 0.00 in0.0 mm 0.00 in0.0 mm
03:29 AM 41.1°F5.1°C 24.8°F-4.0°C 52% 2.3 mph NNW3.7 kmh NNW 7.0 mph11.3 kmh 30.47 in1031.8 mb 0.00 in0.0 mm 0.00 in0.0 mm 0.00 in0.0 mm
03:34 AM 41.0°F5.0°C 24.7°F-4.1°C 52% 2.3 mph N3.7 kmh N 6.0 mph9.7 kmh 30.47 in1031.8 mb 0.00 in0.0 mm 0.00 in0.0 mm 0.00 in0.0 mm
03:39 AM 41.0°F5.0°C 24.7°F-4.1°C 52% 2.4 mph N3.9 kmh N 5.0 mph8.0 kmh 30.47 in1031.8 mb 0.00 in0.0 mm 0.00 in0.0 mm 0.00 in0.0 mm
03:44 AM 40.9°F4.9°C 24.6°F-4.1°C 52% 3.0 mph NNE4.8 kmh NNE 8.0 mph12.9 kmh 30.46 in1031.5 mb 0.00 in0.0 mm 0.00 in0.0 mm 0.00 in0.0 mm
03:49 AM 41.0°F5.0°C 24.7°F-4.1°C 52% 2.1 mph N3.4 kmh N 8.0 mph12.9 kmh 30.46 in1031.5 mb 0.00 in0.0 mm 0.00 in0.0 mm 0.00 in0.0 mm
03:54 AM 41.0°F5.0°C 24.7°F-4.1°C 52% 2.0 mph NNE3.2 kmh NNE 8.0 mph12.9 kmh 30.46 in1031.5 mb 0.00 in0.0 mm 0.00 in0.0 mm 0.00 in0.0 mm
03:59 AM 40.9°F4.9°C 24.6°F-4.1°C 52% 2.5 mph N4.0 kmh N 8.0 mph12.9 kmh 30.47 in1031.8 mb 0.00 in0.0 mm 0.00 in0.0 mm 0.00 in0.0 mm
04:04 AM 40.9°F4.9°C 25.1°F-3.8°C 53% 1.2 mph NNW1.9 kmh NNW 5.0 mph8.0 kmh 30.47 in1031.8 mb 0.00 in0.0 mm 0.00 in0.0 mm 0.00 in0.0 mm
04:09 AM 40.8°F4.9°C 25.0°F-3.9°C 53% 2.3 mph NNW3.7 kmh NNW 5.0 mph8.0 kmh 30.47 in1031.8 mb 0.00 in0.0 mm 0.00 in0.0 mm 0.00 in0.0 mm
04:14 AM 40.8°F4.9°C 25.4°F-3.7°C 54% 1.4 mph N2.3 kmh N 5.0 mph8.0 kmh 30.47 in1031.8 mb 0.00 in0.0 mm 0.00 in0.0 mm 0.00 in0.0 mm
04:19 AM 40.7°F4.8°C 24.9°F-3.9°C 53% 2.1 mph NNW3.4 kmh NNW 5.0 mph8.0 kmh 30.48 in1032.2 mb 0.00 in0.0 mm 0.00 in0.0 mm 0.00 in0.0 mm
04:24 AM 40.7°F4.8°C 25.3°F-3.7°C 54% 1.8 mph N2.9 kmh N 5.0 mph8.0 kmh 30.48 in1032.2 mb 0.00 in0.0 mm 0.00 in0.0 mm 0.00 in0.0 mm
04:29 AM 40.7°F4.8°C 25.3°F-3.7°C 54% 2.2 mph NNW3.5 kmh NNW 5.0 mph8.0 kmh 30.48 in1032.2 mb 0.00 in0.0 mm 0.00 in0.0 mm 0.00 in0.0 mm
04:34 AM 40.6°F4.8°C 25.3°F-3.7°C 54% 2.1 mph NW3.4 kmh NW 6.0 mph9.7 kmh 30.49 in1032.5 mb 0.00 in0.0 mm 0.00 in0.0 mm 0.00 in0.0 mm
04:39 AM 40.5°F4.7°C 25.6°F-3.6°C 55% 2.5 mph NNW4.0 kmh NNW 6.0 mph9.7 kmh 30.49 in1032.5 mb 0.00 in0.0 mm 0.00 in0.0 mm 0.00 in0.0 mm
04:44 AM 40.5°F4.7°C 25.6°F-3.6°C 55% 3.2 mph NNW5.1 kmh NNW 6.0 mph9.7 kmh 30.49 in1032.5 mb 0.00 in0.0 mm 0.00 in0.0 mm 0.00 in0.0 mm
04:49 AM 40.4°F4.7°C 25.5°F-3.6°C 55% 3.4 mph NNW5.5 kmh NNW 7.0 mph11.3 kmh 30.49 in1032.5 mb 0.00 in0.0 mm 0.00 in0.0 mm 0.00 in0.0 mm
04:54 AM 40.4°F4.7°C 25.5°F-3.6°C 55% 2.7 mph N4.3 kmh N 7.0 mph11.3 kmh 30.49 in1032.5 mb 0.00 in0.0 mm 0.00 in0.0 mm 0.00 in0.0 mm
04:59 AM 40.4°F4.7°C 25.5°F-3.6°C 55% 1.9 mph NNW3.1 kmh NNW 7.0 mph11.3 kmh 30.49 in1032.5 mb 0.00 in0.0 mm 0.00 in0.0 mm 0.00 in0.0 mm
05:04 AM 40.4°F4.7°C 25.5°F-3.6°C 55% 1.6 mph N2.6 kmh N 7.0 mph11.3 kmh 30.49 in1032.5 mb 0.00 in0.0 mm 0.00 in0.0 mm 0.00 in0.0 mm
05:09 AM 40.4°F4.7°C 25.5°F-3.6°C 55% 1.8 mph N2.9 kmh N 6.0 mph9.7 kmh 30.50 in1032.8 mb 0.00 in0.0 mm 0.00 in0.0 mm 0.00 in0.0 mm
05:14 AM 40.3°F4.6°C 25.9°F-3.4°C 56% 1.9 mph N3.1 kmh N 5.0 mph8.0 kmh 30.50 in1032.8 mb 0.00 in0.0 mm 0.00 in0.0 mm 0.00 in0.0 mm
05:19 AM 40.3°F4.6°C 25.9°F-3.4°C 56% 1.4 mph N2.3 kmh N 5.0 mph8.0 kmh 30.51 in1033.2 mb 0.00 in0.0 mm 0.00 in0.0 mm 0.00 in0.0 mm
05:24 AM 40.3°F4.6°C 25.9°F-3.4°C 56% 1.2 mph NNW1.9 kmh NNW 5.0 mph8.0 kmh 30.50 in1032.8 mb 0.00 in0.0 mm 0.00 in0.0 mm 0.00 in0.0 mm
05:29 AM 40.3°F4.6°C 25.9°F-3.4°C 56% 3.4 mph N5.5 kmh N 6.0 mph9.7 kmh 30.50 in1032.8 mb 0.00 in0.0 mm 0.00 in0.0 mm 0.00 in0.0 mm
05:34 AM 40.3°F4.6°C 25.9°F-3.4°C 56% 3.9 mph N6.3 kmh N 7.0 mph11.3 kmh 30.50 in1032.8 mb 0.00 in0.0 mm 0.00 in0.0 mm 0.00 in0.0 mm
05:39 AM 40.4°F4.7°C 26.0°F-3.3°C 56% 2.8 mph N4.5 kmh N 7.0 mph11.3 kmh 30.51 in1033.2 mb 0.00 in0.0 mm 0.00 in0.0 mm 0.00 in0.0 mm
05:44 AM 40.3°F4.6°C 25.9°F-3.4°C 56% 2.9 mph N4.7 kmh N 7.0 mph11.3 kmh 30.51 in1033.2 mb 0.00 in0.0 mm 0.00 in0.0 mm 0.00 in0.0 mm
05:49 AM 40.3°F4.6°C 25.8°F-3.4°C 56% 3.4 mph N5.5 kmh N 7.0 mph11.3 kmh 30.51 in1033.2 mb 0.00 in0.0 mm 0.00 in0.0 mm 0.00 in0.0 mm
05:54 AM 40.3°F4.6°C 25.9°F-3.4°C 56% 2.8 mph N4.5 kmh N 7.0 mph11.3 kmh 30.52 in1033.5 mb 0.00 in0.0 mm 0.00 in0.0 mm 0.00 in0.0 mm
05:59 AM 40.3°F4.6°C 25.9°F-3.4°C 56% 2.7 mph N4.3 kmh N 7.0 mph11.3 kmh 30.52 in1033.5 mb 0.00 in0.0 mm 0.00 in0.0 mm 0.00 in0.0 mm
06:04 AM 40.3°F4.6°C 26.3°F-3.2°C 57% 2.3 mph N3.7 kmh N 8.0 mph12.9 kmh 30.52 in1033.5 mb 0.00 in0.0 mm 0.00 in0.0 mm 0.00 in0.0 mm
06:09 AM 40.3°F4.6°C 26.3°F-3.2°C 57% 3.2 mph NE5.1 kmh NE 8.0 mph12.9 kmh 30.52 in1033.5 mb 0.00 in0.0 mm 0.00 in0.0 mm 0.00 in0.0 mm
06:14 AM 40.3°F4.6°C 26.3°F-3.2°C 57% 3.0 mph N4.8 kmh N 8.0 mph12.9 kmh 30.51 in1033.2 mb 0.00 in0.0 mm 0.00 in0.0 mm 0.00 in0.0 mm
06:19 AM 40.2°F4.6°C 26.2°F-3.2°C 57% 2.1 mph NE3.4 kmh NE 7.0 mph11.3 kmh 30.51 in1033.2 mb 0.00 in0.0 mm 0.00 in0.0 mm 0.00 in0.0 mm
06:24 AM 40.1°F4.5°C 26.5°F-3.1°C 58% 1.9 mph N3.1 kmh N 7.0 mph11.3 kmh 30.52 in1033.5 mb 0.00 in0.0 mm 0.00 in0.0 mm 0.00 in0.0 mm
06:29 AM 40.1°F4.5°C 26.5°F-3.1°C 58% 2.4 mph N3.9 kmh N 7.0 mph11.3 kmh 30.53 in1033.9 mb 0.00 in0.0 mm 0.00 in0.0 mm 0.00 in0.0 mm
06:34 AM 40.0°F4.4°C 26.4°F-3.1°C 58% 2.0 mph N3.2 kmh N 7.0 mph11.3 kmh 30.53 in1033.9 mb 0.00 in0.0 mm 0.00 in0.0 mm 0.00 in0.0 mm
06:39 AM 40.0°F4.4°C 26.5°F-3.1°C 58% 3.9 mph NE6.3 kmh NE 6.0 mph9.7 kmh 30.52 in1033.5 mb 0.00 in0.0 mm 0.00 in0.0 mm 0.00 in0.0 mm
06:44 AM 39.9°F4.4°C 26.8°F-2.9°C 59% 2.6 mph NE4.2 kmh NE 6.0 mph9.7 kmh 30.52 in1033.5 mb 0.00 in0.0 mm 0.00 in0.0 mm 0.00 in0.0 mm
06:49 AM 39.9°F4.4°C 26.4°F-3.1°C 58% 2.7 mph N4.3 kmh N 6.0 mph9.7 kmh 30.53 in1033.9 mb 0.00 in0.0 mm 0.00 in0.0 mm 0.00 in0.0 mm
06:54 AM 39.8°F4.3°C 26.7°F-2.9°C 59% 2.6 mph N4.2 kmh N 6.0 mph9.7 kmh 30.53 in1033.9 mb 0.00 in0.0 mm 0.00 in0.0 mm 0.00 in0.0 mm
06:59 AM 39.8°F4.3°C 26.7°F-2.9°C 59% 2.8 mph N4.5 kmh N 6.0 mph9.7 kmh 30.54 in1034.2 mb 0.00 in0.0 mm 0.00 in0.0 mm 0.00 in0.0 mm
07:04 AM 39.9°F4.4°C 26.4°F-3.1°C 58% 2.8 mph N4.5 kmh N 6.0 mph9.7 kmh 30.54 in1034.2 mb 0.00 in0.0 mm 0.00 in0.0 mm 0.00 in0.0 mm
07:09 AM 40.0°F4.4°C 26.5°F-3.1°C 58% 2.4 mph N3.9 kmh N 6.0 mph9.7 kmh 30.55 in1034.5 mb 0.00 in0.0 mm 0.00 in0.0 mm 0.00 in0.0 mm
07:14 AM 40.1°F4.5°C 26.5°F-3.1°C 58% 2.6 mph NNE4.2 kmh NNE 5.0 mph8.0 kmh 30.55 in1034.5 mb 0.00 in0.0 mm 0.00 in0.0 mm 0.00 in0.0 mm
07:19 AM 40.2°F4.6°C 26.6°F-3.0°C 58% 3.7 mph 6.0 kmh 6.0 mph9.7 kmh 30.55 in1034.5 mb 0.00 in0.0 mm 0.00 in0.0 mm 0.00 in0.0 mm
07:24 AM 40.3°F4.6°C 26.7°F-2.9°C 58% 3.3 mph NNE5.3 kmh NNE 6.0 mph9.7 kmh 30.55 in1034.5 mb 0.00 in0.0 mm 0.00 in0.0 mm 0.00 in0.0 mm
07:29 AM 40.4°F4.7°C 26.8°F-2.9°C 58% 2.7 mph N4.3 kmh N 6.0 mph9.7 kmh 30.55 in1034.5 mb 0.00 in0.0 mm 0.00 in0.0 mm 0.00 in0.0 mm
07:34 AM 40.4°F4.7°C 26.8°F-2.9°C 58% 2.5 mph NNW4.0 kmh NNW 6.0 mph9.7 kmh 30.56 in1034.9 mb 0.00 in0.0 mm 0.00 in0.0 mm 0.00 in0.0 mm
07:39 AM 40.6°F4.8°C 27.4°F-2.6°C 59% 2.0 mph N3.2 kmh N 6.0 mph9.7 kmh 30.56 in1034.9 mb 0.00 in0.0 mm 0.00 in0.0 mm 0.00 in0.0 mm
07:44 AM 40.7°F4.8°C 27.1°F-2.7°C 58% 1.6 mph N2.6 kmh N 5.0 mph8.0 kmh 30.56 in1034.9 mb 0.00 in0.0 mm 0.00 in0.0 mm 0.00 in0.0 mm
07:49 AM 40.8°F4.9°C 27.2°F-2.7°C 58% 2.1 mph N3.4 kmh N 5.0 mph8.0 kmh 30.56 in1034.9 mb 0.00 in0.0 mm 0.00 in0.0 mm 0.00 in0.0 mm
07:54 AM 40.8°F4.9°C 26.8°F-2.9°C 57% 2.7 mph N4.3 kmh N 5.0 mph8.0 kmh 30.56 in1034.9 mb 0.00 in0.0 mm 0.00 in0.0 mm 0.00 in0.0 mm
07:59 AM 40.8°F4.9°C 26.8°F-2.9°C 57% 2.5 mph N4.0 kmh N 5.0 mph8.0 kmh 30.56 in1034.9 mb 0.00 in0.0 mm 0.00 in0.0 mm 0.00 in0.0 mm
08:04 AM 40.9°F4.9°C 27.3°F-2.6°C 58% 2.8 mph N4.5 kmh N 6.0 mph9.7 kmh 30.56 in1034.9 mb 0.00 in0.0 mm 0.00 in0.0 mm 0.00 in0.0 mm
08:09 AM 41.2°F5.1°C 27.6°F-2.4°C 58% 2.8 mph N4.5 kmh N 6.0 mph9.7 kmh 30.57 in1035.2 mb 0.00 in0.0 mm 0.00 in0.0 mm 0.00 in0.0 mm
08:14 AM 41.4°F5.2°C 27.3°F-2.6°C 57% 3.1 mph N5.0 kmh N 7.0 mph11.3 kmh 30.57 in1035.2 mb 0.00 in0.0 mm 0.00 in0.0 mm 0.00 in0.0 mm
08:19 AM 41.6°F5.3°C 27.5°F-2.5°C 57% 2.3 mph NNE3.7 kmh NNE 7.0 mph11.3 kmh 30.58 in1035.6 mb 0.00 in0.0 mm 0.00 in0.0 mm 0.00 in0.0 mm
08:24 AM 41.7°F5.4°C 27.2°F-2.7°C 56% 2.2 mph N3.5 kmh N 7.0 mph11.3 kmh 30.58 in1035.6 mb 0.00 in0.0 mm 0.00 in0.0 mm 0.00 in0.0 mm
08:29 AM 41.9°F5.5°C 27.8°F-2.3°C 57% 2.6 mph NNE4.2 kmh NNE 7.0 mph11.3 kmh 30.58 in1035.6 mb 0.00 in0.0 mm 0.00 in0.0 mm 0.00 in0.0 mm
08:34 AM 42.2°F5.7°C 28.0°F-2.2°C 57% 2.6 mph N4.2 kmh N 7.0 mph11.3 kmh 30.58 in1035.6 mb 0.00 in0.0 mm 0.00 in0.0 mm 0.00 in0.0 mm
08:39 AM 42.3°F5.7°C 28.2°F-2.1°C 57% 2.5 mph N4.0 kmh N 7.0 mph11.3 kmh 30.58 in1035.6 mb 0.00 in0.0 mm 0.00 in0.0 mm 0.00 in0.0 mm
08:44 AM 42.4°F5.8°C 27.8°F-2.3°C 56% 3.7 mph NNE6.0 kmh NNE 7.0 mph11.3 kmh 30.58 in1035.6 mb 0.00 in0.0 mm 0.00 in0.0 mm 0.00 in0.0 mm
08:49 AM 42.5°F5.8°C 27.9°F-2.3°C 56% 3.6 mph NNE5.8 kmh NNE 7.0 mph11.3 kmh 30.59 in1035.9 mb 0.00 in0.0 mm 0.00 in0.0 mm 0.00 in0.0 mm
08:54 AM 42.6°F5.9°C 28.0°F-2.2°C 56% 4.5 mph NNE7.2 kmh NNE 9.0 mph14.5 kmh 30.59 in1035.9 mb 0.00 in0.0 mm 0.00 in0.0 mm 0.00 in0.0 mm
08:59 AM 42.7°F5.9°C 27.7°F-2.4°C 55% 4.9 mph NNE7.9 kmh NNE 9.0 mph14.5 kmh 30.59 in1035.9 mb 0.00 in0.0 mm 0.00 in0.0 mm 0.00 in0.0 mm
09:04 AM 42.7°F5.9°C 27.7°F-2.4°C 55% 4.3 mph NE6.9 kmh NE 9.0 mph14.5 kmh 30.59 in1035.9 mb 0.00 in0.0 mm 0.00 in0.0 mm 0.00 in0.0 mm
09:09 AM 42.6°F5.9°C 27.6°F-2.4°C 55% 4.1 mph NE6.6 kmh NE 9.0 mph14.5 kmh 30.58 in1035.6 mb 0.00 in0.0 mm 0.00 in0.0 mm 0.00 in0.0 mm
09:14 AM 42.8°F6.0°C 28.2°F-2.1°C 56% 4.0 mph NE6.4 kmh NE 9.0 mph14.5 kmh 30.59 in1035.9 mb 0.00 in0.0 mm 0.00 in0.0 mm 0.00 in0.0 mm
09:19 AM 43.0°F6.1°C 28.0°F-2.2°C 55% 3.7 mph NE6.0 kmh NE 9.0 mph14.5 kmh 30.59 in1035.9 mb 0.00 in0.0 mm 0.00 in0.0 mm 0.00 in0.0 mm
09:24 AM 43.1°F6.2°C 28.5°F-1.9°C 56% 4.3 mph NNE6.9 kmh NNE 9.0 mph14.5 kmh 30.60 in1036.2 mb 0.00 in0.0 mm 0.00 in0.0 mm 0.00 in0.0 mm
09:29 AM 43.0°F6.1°C 28.4°F-2.0°C 56% 6.1 mph NE9.8 kmh NE 10.0 mph16.1 kmh 30.59 in1035.9 mb 0.00 in0.0 mm 0.00 in0.0 mm 0.00 in0.0 mm
09:34 AM 43.1°F6.2°C 28.9°F-1.7°C 57% 5.0 mph NE8.0 kmh NE 10.0 mph16.1 kmh 30.60 in1036.2 mb 0.00 in0.0 mm 0.00 in0.0 mm 0.00 in0.0 mm
09:39 AM 43.3°F6.3°C 28.2°F-2.1°C 55% 3.5 mph ENE5.6 kmh ENE 10.0 mph16.1 kmh 30.59 in1035.9 mb 0.00 in0.0 mm 0.00 in0.0 mm 0.00 in0.0 mm
09:44 AM 43.5°F6.4°C 28.4°F-2.0°C 55% 4.5 mph NE7.2 kmh NE 10.0 mph16.1 kmh 30.60 in1036.2 mb 0.00 in0.0 mm 0.00 in0.0 mm 0.00 in0.0 mm
09:49 AM 43.6°F6.4°C 28.1°F-2.2°C 54% 4.7 mph NE7.6 kmh NE 8.0 mph12.9 kmh 30.60 in1036.2 mb 0.00 in0.0 mm 0.00 in0.0 mm 0.00 in0.0 mm
09:54 AM 43.9°F6.6°C 29.2°F-1.6°C 56% 2.7 mph N4.3 kmh N 8.0 mph12.9 kmh 30.61 in1036.6 mb 0.00 in0.0 mm 0.00 in0.0 mm 0.00 in0.0 mm
09:59 AM 43.9°F6.6°C 29.2°F-1.6°C 56% 2.0 mph NE3.2 kmh NE 8.0 mph12.9 kmh 30.60 in1036.2 mb 0.00 in0.0 mm 0.00 in0.0 mm 0.00 in0.0 mm
10:04 AM 44.2°F6.8°C 28.6°F-1.9°C 54% 4.6 mph NE7.4 kmh NE 8.0 mph12.9 kmh 30.61 in1036.6 mb 0.00 in0.0 mm 0.00 in0.0 mm 0.00 in0.0 mm
10:09 AM 44.3°F6.8°C 27.8°F-2.3°C 52% 4.9 mph NE7.9 kmh NE 8.0 mph12.9 kmh 30.61 in1036.6 mb 0.00 in0.0 mm 0.00 in0.0 mm 0.00 in0.0 mm
10:14 AM 44.6°F7.0°C 28.5°F-1.9°C 53% 3.8 mph NE6.1 kmh NE 8.0 mph12.9 kmh 30.61 in1036.6 mb 0.00 in0.0 mm 0.00 in0.0 mm 0.00 in0.0 mm
10:19 AM 44.8°F7.1°C 27.7°F-2.4°C 51% 3.6 mph NE5.8 kmh NE 8.0 mph12.9 kmh 30.61 in1036.6 mb 0.00 in0.0 mm 0.00 in0.0 mm 0.00 in0.0 mm
10:24 AM 45.0°F7.2°C 27.9°F-2.3°C 51% 6.2 mph NE10.0 kmh NE 10.0 mph16.1 kmh 30.61 in1036.6 mb 0.00 in0.0 mm 0.00 in0.0 mm 0.00 in0.0 mm
10:29 AM 45.0°F7.2°C 27.4°F-2.6°C 50% 6.0 mph NE9.7 kmh NE 10.0 mph16.1 kmh 30.62 in1036.9 mb 0.00 in0.0 mm 0.00 in0.0 mm 0.00 in0.0 mm
10:34 AM 45.2°F7.3°C 27.1°F-2.7°C 49% 6.3 mph NE10.1 kmh NE 11.0 mph17.7 kmh 30.62 in1036.9 mb 0.00 in0.0 mm 0.00 in0.0 mm 0.00 in0.0 mm
10:39 AM 45.3°F7.4°C 28.2°F-2.1°C 51% 4.7 mph NNE7.6 kmh NNE 12.0 mph19.3 kmh 30.62 in1036.9 mb 0.00 in0.0 mm 0.00 in0.0 mm 0.00 in0.0 mm
10:44 AM 45.4°F7.4°C 28.3°F-2.1°C 51% 5.5 mph NE8.9 kmh NE 12.0 mph19.3 kmh 30.62 in1036.9 mb 0.00 in0.0 mm 0.00 in0.0 mm 0.00 in0.0 mm
10:49 AM 45.4°F7.4°C 28.8°F-1.8°C 52% 4.7 mph NE7.6 kmh NE 12.0 mph19.3 kmh 30.62 in1036.9 mb 0.00 in0.0 mm 0.00 in0.0 mm 0.00 in0.0 mm
10:54 AM 45.4°F7.4°C 28.3°F-2.1°C 51% 5.3 mph NE8.5 kmh NE 12.0 mph19.3 kmh 30.62 in1036.9 mb 0.00 in0.0 mm 0.00 in0.0 mm 0.00 in0.0 mm
10:59 AM 45.5°F7.5°C 28.4°F-2.0°C 51% 3.6 mph NE5.8 kmh NE 12.0 mph19.3 kmh 30.61 in1036.6 mb 0.00 in0.0 mm 0.00 in0.0 mm 0.00 in0.0 mm
11:04 AM 45.6°F7.6°C 28.5°F-1.9°C 51% 4.8 mph NE7.7 kmh NE 10.0 mph16.1 kmh 30.61 in1036.6 mb 0.00 in0.0 mm 0.00 in0.0 mm 0.00 in0.0 mm
11:09 AM 45.6°F7.6°C 28.5°F-1.9°C 51% 4.9 mph NE7.9 kmh NE 11.0 mph17.7 kmh 30.61 in1036.6 mb 0.00 in0.0 mm 0.00 in0.0 mm 0.00 in0.0 mm
11:14 AM 45.7°F7.6°C 28.6°F-1.9°C 51% 5.1 mph NE8.2 kmh NE 11.0 mph17.7 kmh 30.61 in1036.6 mb 0.00 in0.0 mm 0.00 in0.0 mm 0.00 in0.0 mm
11:19 AM 45.9°F7.7°C 28.3°F-2.1°C 50% 5.3 mph NE8.5 kmh NE 11.0 mph17.7 kmh 30.61 in1036.6 mb 0.00 in0.0 mm 0.00 in0.0 mm 0.00 in0.0 mm
11:24 AM 46.0°F7.8°C 28.4°F-2.0°C 50% 6.4 mph NE10.3 kmh NE 11.0 mph17.7 kmh 30.61 in1036.6 mb 0.00 in0.0 mm 0.00 in0.0 mm 0.00 in0.0 mm
11:29 AM 46.3°F7.9°C 29.1°F-1.6°C 51% 3.8 mph NE6.1 kmh NE 11.0 mph17.7 kmh 30.61 in1036.6 mb 0.00 in0.0 mm 0.00 in0.0 mm 0.00 in0.0 mm
11:34 AM 46.5°F8.1°C 28.8°F-1.8°C 50% 5.7 mph NE9.2 kmh NE 9.0 mph14.5 kmh 30.61 in1036.6 mb 0.00 in0.0 mm 0.00 in0.0 mm 0.00 in0.0 mm
11:39 AM 46.5°F8.1°C 28.8°F-1.8°C 50% 4.0 mph NE6.4 kmh NE 12.0 mph19.3 kmh 30.61 in1036.6 mb 0.00 in0.0 mm 0.00 in0.0 mm 0.00 in0.0 mm
11:44 AM 46.8°F8.2°C 28.6°F-1.9°C 49% 6.1 mph NE9.8 kmh NE 14.0 mph22.5 kmh 30.61 in1036.6 mb 0.00 in0.0 mm 0.00 in0.0 mm 0.00 in0.0 mm
11:49 AM 46.9°F8.3°C 27.1°F-2.7°C 46% 7.3 mph NE11.7 kmh NE 14.0 mph22.5 kmh 30.61 in1036.6 mb 0.00 in0.0 mm 0.00 in0.0 mm 0.00 in0.0 mm
11:54 AM 47.2°F8.4°C 27.4°F-2.6°C 46% 3.1 mph NE5.0 kmh NE 14.0 mph22.5 kmh 30.61 in1036.6 mb 0.00 in0.0 mm 0.00 in0.0 mm 0.00 in0.0 mm
11:59 AM 47.5°F8.6°C 27.1°F-2.7°C 45% 5.3 mph NE8.5 kmh NE 14.0 mph22.5 kmh 30.61 in1036.6 mb 0.00 in0.0 mm 0.00 in0.0 mm 0.00 in0.0 mm
12:04 PM 47.6°F8.7°C 26.6°F-3.0°C 44% 7.4 mph ENE11.9 kmh ENE 14.0 mph22.5 kmh 30.61 in1036.6 mb 0.00 in0.0 mm 0.00 in0.0 mm 0.00 in0.0 mm
12:09 PM 47.7°F8.7°C 26.1°F-3.3°C 43% 7.4 mph NE11.9 kmh NE 14.0 mph22.5 kmh 30.61 in1036.6 mb 0.00 in0.0 mm 0.00 in0.0 mm 0.00 in0.0 mm
12:14 PM 47.8°F8.8°C 26.2°F-3.2°C 43% 6.9 mph NE11.1 kmh NE 14.0 mph22.5 kmh 30.60 in1036.2 mb 0.00 in0.0 mm 0.00 in0.0 mm 0.00 in0.0 mm
12:19 PM 47.9°F8.8°C 26.3°F-3.2°C 43% 5.9 mph NE9.5 kmh NE 14.0 mph22.5 kmh 30.60 in1036.2 mb 0.00 in0.0 mm 0.00 in0.0 mm 0.00 in0.0 mm
12:24 PM 48.1°F8.9°C 26.5°F-3.1°C 43% 5.8 mph NE9.3 kmh NE 15.0 mph24.1 kmh 30.60 in1036.2 mb 0.00 in0.0 mm 0.00 in0.0 mm 0.00 in0.0 mm
12:29 PM 48.4°F9.1°C 26.8°F-2.9°C 43% 4.8 mph NE7.7 kmh NE 15.0 mph24.1 kmh 30.60 in1036.2 mb 0.00 in0.0 mm 0.00 in0.0 mm 0.00 in0.0 mm
12:34 PM 48.9°F9.4°C 27.4°F-2.6°C 43% 3.8 mph ENE6.1 kmh ENE 15.0 mph24.1 kmh 30.59 in1035.9 mb 0.00 in0.0 mm 0.00 in0.0 mm 0.00 in0.0 mm
12:39 PM 48.9°F9.4°C 26.8°F-2.9°C 42% 7.2 mph ENE11.6 kmh ENE 15.0 mph24.1 kmh 30.59 in1035.9 mb 0.00 in0.0 mm 0.00 in0.0 mm 0.00 in0.0 mm
12:44 PM 49.1°F9.5°C 27.4°F-2.6°C 43% 3.0 mph NE4.8 kmh NE 12.0 mph19.3 kmh 30.59 in1035.9 mb 0.00 in0.0 mm 0.00 in0.0 mm 0.00 in0.0 mm
12:49 PM 49.3°F9.6°C 27.0°F-2.8°C 42% 6.6 mph ENE10.6 kmh ENE 14.0 mph22.5 kmh 30.59 in1035.9 mb 0.00 in0.0 mm 0.00 in0.0 mm 0.00 in0.0 mm
12:54 PM 49.3°F9.6°C 27.0°F-2.8°C 42% 3.7 mph NE6.0 kmh NE 14.0 mph22.5 kmh 30.59 in1035.9 mb 0.00 in0.0 mm 0.00 in0.0 mm 0.00 in0.0 mm
12:59 PM 49.7°F9.8°C 26.8°F-2.9°C 41% 5.4 mph ENE8.7 kmh ENE 14.0 mph22.5 kmh 30.59 in1035.9 mb 0.00 in0.0 mm 0.00 in0.0 mm 0.00 in0.0 mm
01:04 PM 50.0°F10.0°C 25.8°F-3.4°C 39% 8.1 mph ENE13.0 kmh ENE 14.0 mph22.5 kmh 30.59 in1035.9 mb 0.00 in0.0 mm 0.00 in0.0 mm 0.00 in0.0 mm
01:09 PM 50.4°F10.2°C 26.2°F-3.2°C 39% 5.6 mph NE9.0 kmh NE 12.0 mph19.3 kmh 30.59 in1035.9 mb 0.00 in0.0 mm 0.00 in0.0 mm 0.00 in0.0 mm
01:14 PM 50.2°F10.1°C 25.3°F-3.7°C 38% 6.4 mph ENE10.3 kmh ENE 12.0 mph19.3 kmh 30.58 in1035.6 mb 0.00 in0.0 mm 0.00 in0.0 mm 0.00 in0.0 mm
01:19 PM 50.6°F10.3°C 26.5°F-3.1°C 39% 6.9 mph NE11.1 kmh NE 12.0 mph19.3 kmh 30.58 in1035.6 mb 0.00 in0.0 mm 0.00 in0.0 mm 0.00 in0.0 mm
01:24 PM 50.9°F10.5°C 25.3°F-3.7°C 37% 7.1 mph NE11.4 kmh NE 12.0 mph19.3 kmh 30.58 in1035.6 mb 0.00 in0.0 mm 0.00 in0.0 mm 0.00 in0.0 mm
01:29 PM 51.3°F10.7°C 25.2°F-3.8°C 36% 6.2 mph NE10.0 kmh NE 12.0 mph19.3 kmh 30.57 in1035.2 mb 0.00 in0.0 mm 0.00 in0.0 mm 0.00 in0.0 mm
01:34 PM 51.3°F10.7°C 25.0°F-3.9°C 36% 8.2 mph NE13.2 kmh NE 13.0 mph20.9 kmh 30.57 in1035.2 mb 0.00 in0.0 mm 0.00 in0.0 mm 0.00 in0.0 mm
01:39 PM 51.3°F10.7°C 24.3°F-4.3°C 35% 10.9 mph NE17.5 kmh NE 15.0 mph24.1 kmh 30.56 in1034.9 mb 0.00 in0.0 mm 0.00 in0.0 mm 0.00 in0.0 mm
01:44 PM 51.3°F10.7°C 24.3°F-4.3°C 35% 7.7 mph NE12.4 kmh NE 15.0 mph24.1 kmh 30.56 in1034.9 mb 0.00 in0.0 mm 0.00 in0.0 mm 0.00 in0.0 mm
01:49 PM 51.6°F10.9°C 24.8°F-4.0°C 35% 7.2 mph NE11.6 kmh NE 15.0 mph24.1 kmh 30.56 in1034.9 mb 0.00 in0.0 mm 0.00 in0.0 mm 0.00 in0.0 mm
01:54 PM 51.9°F11.1°C 24.2°F-4.3°C 34% 9.9 mph E15.9 kmh E 15.0 mph24.1 kmh 30.56 in1034.9 mb 0.00 in0.0 mm 0.00 in0.0 mm 0.00 in0.0 mm
01:59 PM 52.0°F11.1°C 25.0°F-3.9°C 35% 6.6 mph ENE10.6 kmh ENE 15.0 mph24.1 kmh 30.56 in1034.9 mb 0.00 in0.0 mm 0.00 in0.0 mm 0.00 in0.0 mm
02:04 PM 52.1°F11.2°C 24.3°F-4.3°C 34% 6.0 mph ENE9.7 kmh ENE 16.0 mph25.7 kmh 30.56 in1034.9 mb 0.00 in0.0 mm 0.00 in0.0 mm 0.00 in0.0 mm
02:09 PM 52.2°F11.2°C 24.6°F-4.1°C 34% 7.1 mph ENE11.4 kmh ENE 16.0 mph25.7 kmh 30.56 in1034.9 mb 0.00 in0.0 mm 0.00 in0.0 mm 0.00 in0.0 mm
02:14 PM 52.2°F11.2°C 24.4°F-4.2°C 34% 7.6 mph NE12.2 kmh NE 16.0 mph25.7 kmh 30.56 in1034.9 mb 0.00 in0.0 mm 0.00 in0.0 mm 0.00 in0.0 mm
02:19 PM 52.2°F11.2°C 24.4°F-4.2°C 34% 6.8 mph ENE10.9 kmh ENE 16.0 mph25.7 kmh 30.55 in1034.5 mb 0.00 in0.0 mm 0.00 in0.0 mm 0.00 in0.0 mm
02:24 PM 52.7°F11.5°C 24.9°F-3.9°C 34% 6.1 mph ENE9.8 kmh ENE 13.0 mph20.9 kmh 30.56 in1034.9 mb 0.00 in0.0 mm 0.00 in0.0 mm 0.00 in0.0 mm
02:29 PM 52.6°F11.4°C 24.8°F-4.0°C 34% 6.7 mph NE10.8 kmh NE 13.0 mph20.9 kmh 30.55 in1034.5 mb 0.00 in0.0 mm 0.00 in0.0 mm 0.00 in0.0 mm
02:34 PM 52.8°F11.6°C 25.7°F-3.5°C 35% 7.7 mph NE12.4 kmh NE 13.0 mph20.9 kmh 30.55 in1034.5 mb 0.00 in0.0 mm 0.00 in0.0 mm 0.00 in0.0 mm
02:39 PM 52.8°F11.6°C 25.0°F-3.9°C 34% 6.4 mph ENE10.3 kmh ENE 13.0 mph20.9 kmh 30.56 in1034.9 mb 0.00 in0.0 mm 0.00 in0.0 mm 0.00 in0.0 mm
02:44 PM 52.8°F11.6°C 25.0°F-3.9°C 34% 7.3 mph NE11.7 kmh NE 14.0 mph22.5 kmh 30.56 in1034.9 mb 0.00 in0.0 mm 0.00 in0.0 mm 0.00 in0.0 mm
02:49 PM 53.0°F11.7°C 26.0°F-3.3°C 35% 3.3 mph ENE5.3 kmh ENE 14.0 mph22.5 kmh 30.56 in1034.9 mb 0.00 in0.0 mm 0.00 in0.0 mm 0.00 in0.0 mm
02:54 PM 53.2°F11.8°C 24.6°F-4.1°C 33% 6.0 mph ENE9.7 kmh ENE 14.0 mph22.5 kmh 30.56 in1034.9 mb 0.00 in0.0 mm 0.00 in0.0 mm 0.00 in0.0 mm
02:59 PM 53.0°F11.7°C 24.4°F-4.2°C 33% 6.2 mph ENE10.0 kmh ENE 14.0 mph22.5 kmh 30.56 in1034.9 mb 0.00 in0.0 mm 0.00 in0.0 mm 0.00 in0.0 mm
03:04 PM 52.9°F11.6°C 25.0°F-3.9°C 34% 7.1 mph ENE11.4 kmh ENE 13.0 mph20.9 kmh 30.56 in1034.9 mb 0.00 in0.0 mm 0.00 in0.0 mm 0.00 in0.0 mm
03:09 PM 53.0°F11.7°C 25.1°F-3.8°C 34% 3.7 mph ENE6.0 kmh ENE 13.0 mph20.9 kmh 30.56 in1034.9 mb 0.00 in0.0 mm 0.00 in0.0 mm 0.00 in0.0 mm
03:14 PM 53.2°F11.8°C 25.3°F-3.7°C 34% 6.6 mph NE10.6 kmh NE 16.0 mph25.7 kmh 30.56 in1034.9 mb 0.00 in0.0 mm 0.00 in0.0 mm 0.00 in0.0 mm
03:19 PM 53.1°F11.7°C 24.5°F-4.2°C 33% 6.2 mph ENE10.0 kmh ENE 16.0 mph25.7 kmh 30.56 in1034.9 mb 0.00 in0.0 mm 0.00 in0.0 mm 0.00 in0.0 mm
03:24 PM 52.9°F11.6°C 23.6°F-4.7°C 32% 7.3 mph ENE11.7 kmh ENE 16.0 mph25.7 kmh 30.55 in1034.5 mb 0.00 in0.0 mm 0.00 in0.0 mm 0.00 in0.0 mm
03:29 PM 53.1°F11.7°C 23.8°F-4.6°C 32% 7.2 mph NE11.6 kmh NE 16.0 mph25.7 kmh 30.55 in1034.5 mb 0.00 in0.0 mm 0.00 in0.0 mm 0.00 in0.0 mm
03:34 PM 53.2°F11.8°C 23.9°F-4.5°C 32% 8.3 mph ENE13.4 kmh ENE 16.0 mph25.7 kmh 30.55 in1034.5 mb 0.00 in0.0 mm 0.00 in0.0 mm 0.00 in0.0 mm
03:39 PM 53.1°F11.7°C 23.8°F-4.6°C 32% 6.7 mph ENE10.8 kmh ENE 16.0 mph25.7 kmh 30.55 in1034.5 mb 0.00 in0.0 mm 0.00 in0.0 mm 0.00 in0.0 mm
03:44 PM 53.1°F11.7°C 23.8°F-4.6°C 32% 7.3 mph ENE11.7 kmh ENE 16.0 mph25.7 kmh 30.55 in1034.5 mb 0.00 in0.0 mm 0.00 in0.0 mm 0.00 in0.0 mm
03:49 PM 53.2°F11.8°C 24.1°F-4.4°C 32% 6.6 mph NE10.6 kmh NE 14.0 mph22.5 kmh 30.55 in1034.5 mb 0.00 in0.0 mm 0.00 in0.0 mm 0.00 in0.0 mm
03:54 PM 53.6°F12.0°C 24.9°F-3.9°C 33% 5.8 mph NE9.3 kmh NE 14.0 mph22.5 kmh 30.55 in1034.5 mb 0.00 in0.0 mm 0.00 in0.0 mm 0.00 in0.0 mm
03:59 PM 53.4°F11.9°C 24.0°F-4.4°C 32% 9.1 mph NE14.6 kmh NE 18.0 mph29.0 kmh 30.54 in1034.2 mb 0.00 in0.0 mm 0.00 in0.0 mm 0.00 in0.0 mm
04:04 PM 53.3°F11.8°C 24.2°F-4.3°C 32% 9.0 mph ENE14.5 kmh ENE 18.0 mph29.0 kmh 30.55 in1034.5 mb 0.00 in0.0 mm 0.00 in0.0 mm 0.00 in0.0 mm
04:09 PM 53.2°F11.8°C 23.9°F-4.5°C 32% 9.4 mph ENE15.1 kmh ENE 18.0 mph29.0 kmh 30.55 in1034.5 mb 0.00 in0.0 mm 0.00 in0.0 mm 0.00 in0.0 mm
04:14 PM 53.2°F11.8°C 24.6°F-4.1°C 33% 9.1 mph ENE14.6 kmh ENE 18.0 mph29.0 kmh 30.55 in1034.5 mb 0.00 in0.0 mm 0.00 in0.0 mm 0.00 in0.0 mm
04:19 PM 53.3°F11.8°C 24.9°F-3.9°C 33% 4.9 mph ENE7.9 kmh ENE 16.0 mph25.7 kmh 30.54 in1034.2 mb 0.00 in0.0 mm 0.00 in0.0 mm 0.00 in0.0 mm
04:24 PM 53.4°F11.9°C 25.0°F-3.9°C 33% 6.8 mph NE10.9 kmh NE 16.0 mph25.7 kmh 30.54 in1034.2 mb 0.00 in0.0 mm 0.00 in0.0 mm 0.00 in0.0 mm
04:29 PM 53.3°F11.8°C 24.9°F-3.9°C 33% 6.7 mph NE10.8 kmh NE 13.0 mph20.9 kmh 30.55 in1034.5 mb 0.00 in0.0 mm 0.00 in0.0 mm 0.00 in0.0 mm
04:34 PM 53.3°F11.8°C 25.4°F-3.7°C 34% 3.5 mph ENE5.6 kmh ENE 12.0 mph19.3 kmh 30.55 in1034.5 mb 0.00 in0.0 mm 0.00 in0.0 mm 0.00 in0.0 mm
04:39 PM 53.3°F11.8°C 24.9°F-3.9°C 33% 6.9 mph ENE11.1 kmh ENE 15.0 mph24.1 kmh 30.55 in1034.5 mb 0.00 in0.0 mm 0.00 in0.0 mm 0.00 in0.0 mm
04:44 PM 53.4°F11.9°C 24.8°F-4.0°C 33% 5.0 mph ENE8.0 kmh ENE 15.0 mph24.1 kmh 30.55 in1034.5 mb 0.00 in0.0 mm 0.00 in0.0 mm 0.00 in0.0 mm
04:49 PM 53.8°F12.1°C 25.1°F-3.8°C 33% 5.0 mph ENE8.0 kmh ENE 15.0 mph24.1 kmh 30.54 in1034.2 mb 0.00 in0.0 mm 0.00 in0.0 mm 0.00 in0.0 mm
04:54 PM 54.3°F12.4°C 26.3°F-3.2°C 34% 3.1 mph ENE5.0 kmh ENE 13.0 mph20.9 kmh 30.54 in1034.2 mb 0.00 in0.0 mm 0.00 in0.0 mm 0.00 in0.0 mm
05:00 PM 54.3°F12.4°C 25.6°F-3.6°C 33% 4.8 mph E7.7 kmh E 12.0 mph19.3 kmh 30.54 in1034.2 mb 0.00 in0.0 mm 0.00 in0.0 mm 0.00 in0.0 mm
05:05 PM 54.2°F12.3°C 25.5°F-3.6°C 33% 5.8 mph ENE9.3 kmh ENE 12.0 mph19.3 kmh 30.54 in1034.2 mb 0.00 in0.0 mm 0.00 in0.0 mm 0.00 in0.0 mm
05:09 PM 53.9°F12.2°C 24.5°F-4.2°C 32% 7.9 mph NE12.7 kmh NE 13.0 mph20.9 kmh 30.54 in1034.2 mb 0.00 in0.0 mm 0.00 in0.0 mm 0.00 in0.0 mm
05:15 PM 54.0°F12.2°C 24.6°F-4.1°C 32% 4.1 mph ENE6.6 kmh ENE 13.0 mph20.9 kmh 30.54 in1034.2 mb 0.00 in0.0 mm 0.00 in0.0 mm 0.00 in0.0 mm
05:20 PM 53.8°F12.1°C 24.6°F-4.1°C 32% 6.5 mph NE10.5 kmh NE 13.0 mph20.9 kmh 30.54 in1034.2 mb 0.00 in0.0 mm 0.00 in0.0 mm 0.00 in0.0 mm
05:25 PM 53.6°F12.0°C 24.2°F-4.3°C 32% 7.5 mph ENE12.1 kmh ENE 13.0 mph20.9 kmh 30.54 in1034.2 mb 0.00 in0.0 mm 0.00 in0.0 mm 0.00 in0.0 mm
05:30 PM 53.4°F11.9°C 24.2°F-4.3°C 32% 5.3 mph ENE8.5 kmh ENE 13.0 mph20.9 kmh 30.54 in1034.2 mb 0.00 in0.0 mm 0.00 in0.0 mm 0.00 in0.0 mm
05:34 PM 53.3°F11.8°C 23.9°F-4.5°C 32% 6.0 mph ENE9.7 kmh ENE 13.0 mph20.9 kmh 30.54 in1034.2 mb 0.00 in0.0 mm 0.00 in0.0 mm 0.00 in0.0 mm
05:40 PM 53.2°F11.8°C 24.6°F-4.1°C 33% 5.1 mph NE8.2 kmh NE 13.0 mph20.9 kmh 30.54 in1034.2 mb 0.00 in0.0 mm 0.00 in0.0 mm 0.00 in0.0 mm
05:45 PM 53.0°F11.7°C 24.4°F-4.2°C 33% 5.9 mph NE9.5 kmh NE 13.0 mph20.9 kmh 30.54 in1034.2 mb 0.00 in0.0 mm 0.00 in0.0 mm 0.00 in0.0 mm
05:50 PM 52.9°F11.6°C 24.3°F-4.3°C 33% 5.6 mph ENE9.0 kmh ENE 11.0 mph17.7 kmh 30.54 in1034.2 mb 0.00 in0.0 mm 0.00 in0.0 mm 0.00 in0.0 mm
05:55 PM 52.8°F11.6°C 24.2°F-4.3°C 33% 6.8 mph NE10.9 kmh NE 11.0 mph17.7 kmh 30.54 in1034.2 mb 0.00 in0.0 mm 0.00 in0.0 mm 0.00 in0.0 mm
06:00 PM 52.7°F11.5°C 24.2°F-4.3°C 33% 5.4 mph NE8.7 kmh NE 11.0 mph17.7 kmh 30.54 in1034.2 mb 0.00 in0.0 mm 0.00 in0.0 mm 0.00 in0.0 mm
06:05 PM 52.5°F11.4°C 24.0°F-4.4°C 33% 5.7 mph ENE9.2 kmh ENE 11.0 mph17.7 kmh 30.54 in1034.2 mb 0.00 in0.0 mm 0.00 in0.0 mm 0.00 in0.0 mm
06:10 PM 52.5°F11.4°C 24.7°F-4.1°C 34% 4.1 mph ENE6.6 kmh ENE 11.0 mph17.7 kmh 30.54 in1034.2 mb 0.00 in0.0 mm 0.00 in0.0 mm 0.00 in0.0 mm
06:15 PM 52.4°F11.3°C 24.6°F-4.1°C 34% 4.3 mph NE6.9 kmh NE 11.0 mph17.7 kmh 30.54 in1034.2 mb 0.00 in0.0 mm 0.00 in0.0 mm 0.00 in0.0 mm
06:20 PM 52.3°F11.3°C 25.2°F-3.8°C 35% 4.0 mph ENE6.4 kmh ENE 9.0 mph14.5 kmh 30.54 in1034.2 mb 0.00 in0.0 mm 0.00 in0.0 mm 0.00 in0.0 mm
06:25 PM 52.2°F11.2°C 25.1°F-3.8°C 35% 4.4 mph ENE7.1 kmh ENE 8.0 mph12.9 kmh 30.54 in1034.2 mb 0.00 in0.0 mm 0.00 in0.0 mm 0.00 in0.0 mm
06:30 PM 52.1°F11.2°C 25.0°F-3.9°C 35% 3.4 mph ENE5.5 kmh ENE 8.0 mph12.9 kmh 30.55 in1034.5 mb 0.00 in0.0 mm 0.00 in0.0 mm 0.00 in0.0 mm
06:35 PM 52.0°F11.1°C 25.0°F-3.9°C 35% 4.7 mph NE7.6 kmh NE 9.0 mph14.5 kmh 30.55 in1034.5 mb 0.00 in0.0 mm 0.00 in0.0 mm 0.00 in0.0 mm
06:40 PM 52.0°F11.1°C 25.0°F-3.9°C 35% 4.6 mph NE7.4 kmh NE 9.0 mph14.5 kmh 30.55 in1034.5 mb 0.00 in0.0 mm 0.00 in0.0 mm 0.00 in0.0 mm
06:45 PM 52.0°F11.1°C 25.0°F-3.9°C 35% 5.2 mph NE8.4 kmh NE 9.0 mph14.5 kmh 30.55 in1034.5 mb 0.00 in0.0 mm 0.00 in0.0 mm 0.00 in0.0 mm
06:50 PM 51.9°F11.1°C 24.9°F-3.9°C 35% 4.4 mph NE7.1 kmh NE 10.0 mph16.1 kmh 30.55 in1034.5 mb 0.00 in0.0 mm 0.00 in0.0 mm 0.00 in0.0 mm
06:55 PM 51.9°F11.1°C 24.2°F-4.3°C 34% 6.5 mph NE10.5 kmh NE 14.0 mph22.5 kmh 30.55 in1034.5 mb 0.00 in0.0 mm 0.00 in0.0 mm 0.00 in0.0 mm
07:00 PM 52.0°F11.1°C 24.3°F-4.3°C 34% 5.3 mph ENE8.5 kmh ENE 14.0 mph22.5 kmh 30.55 in1034.5 mb 0.00 in0.0 mm 0.00 in0.0 mm 0.00 in0.0 mm
07:05 PM 51.9°F11.1°C 24.4°F-4.2°C 34% 6.6 mph ENE10.6 kmh ENE 14.0 mph22.5 kmh 30.55 in1034.5 mb 0.00 in0.0 mm 0.00 in0.0 mm 0.00 in0.0 mm
07:10 PM 51.8°F11.0°C 24.8°F-4.0°C 35% 3.9 mph NE6.3 kmh NE 14.0 mph22.5 kmh 30.55 in1034.5 mb 0.00 in0.0 mm 0.00 in0.0 mm 0.00 in0.0 mm
07:15 PM 51.8°F11.0°C 24.8°F-4.0°C 35% 4.3 mph NE6.9 kmh NE 11.0 mph17.7 kmh 30.55 in1034.5 mb 0.00 in0.0 mm 0.00 in0.0 mm 0.00 in0.0 mm
07:20 PM 51.7°F10.9°C 25.4°F-3.7°C 36% 3.0 mph NE4.8 kmh NE 10.0 mph16.1 kmh 30.55 in1034.5 mb 0.00 in0.0 mm 0.00 in0.0 mm 0.00 in0.0 mm
07:25 PM 51.6°F10.9°C 25.3°F-3.7°C 36% 4.8 mph NE7.7 kmh NE 10.0 mph16.1 kmh 30.55 in1034.5 mb 0.00 in0.0 mm 0.00 in0.0 mm 0.00 in0.0 mm
07:30 PM 51.5°F10.8°C 24.5°F-4.2°C 35% 4.6 mph NE7.4 kmh NE 10.0 mph16.1 kmh 30.56 in1034.9 mb 0.00 in0.0 mm 0.00 in0.0 mm 0.00 in0.0 mm
07:35 PM 51.4°F10.8°C 25.1°F-3.8°C 36% 6.8 mph NE10.9 kmh NE 10.0 mph16.1 kmh 30.56 in1034.9 mb 0.00 in0.0 mm 0.00 in0.0 mm 0.00 in0.0 mm
07:40 PM 51.3°F10.7°C 25.0°F-3.9°C 36% 6.4 mph NE10.3 kmh NE 14.0 mph22.5 kmh 30.56 in1034.9 mb 0.00 in0.0 mm 0.00 in0.0 mm 0.00 in0.0 mm
07:45 PM 51.1°F10.6°C 24.4°F-4.2°C 35% 5.9 mph ENE9.5 kmh ENE 14.0 mph22.5 kmh 30.56 in1034.9 mb 0.00 in0.0 mm 0.00 in0.0 mm 0.00 in0.0 mm
07:50 PM 51.0°F10.6°C 24.3°F-4.3°C 35% 10.1 mph ENE16.3 kmh ENE 15.0 mph24.1 kmh 30.56 in1034.9 mb 0.00 in0.0 mm 0.00 in0.0 mm 0.00 in0.0 mm
07:55 PM 51.0°F10.6°C 24.7°F-4.1°C 36% 5.6 mph NE9.0 kmh NE 15.0 mph24.1 kmh 30.56 in1034.9 mb 0.00 in0.0 mm 0.00 in0.0 mm 0.00 in0.0 mm
08:00 PM 50.9°F10.5°C 24.7°F-4.1°C 36% 4.9 mph NE7.9 kmh NE 15.0 mph24.1 kmh 30.56 in1034.9 mb 0.00 in0.0 mm 0.00 in0.0 mm 0.00 in0.0 mm
08:05 PM 50.8°F10.4°C 24.8°F-4.0°C 36% 5.5 mph NE8.9 kmh NE 15.0 mph24.1 kmh 30.56 in1034.9 mb 0.00 in0.0 mm 0.00 in0.0 mm 0.00 in0.0 mm
08:10 PM 50.8°F10.4°C 24.6°F-4.1°C 36% 4.0 mph ENE6.4 kmh ENE 11.0 mph17.7 kmh 30.56 in1034.9 mb 0.00 in0.0 mm 0.00 in0.0 mm 0.00 in0.0 mm
08:15 PM 50.7°F10.4°C 24.7°F-4.1°C 36% 7.0 mph NE11.3 kmh NE 13.0 mph20.9 kmh 30.56 in1034.9 mb 0.00 in0.0 mm 0.00 in0.0 mm 0.00 in0.0 mm
08:20 PM 50.6°F10.3°C 24.6°F-4.1°C 36% 4.1 mph NE6.6 kmh NE 13.0 mph20.9 kmh 30.57 in1035.2 mb 0.00 in0.0 mm 0.00 in0.0 mm 0.00 in0.0 mm
08:25 PM 50.5°F10.3°C 24.3°F-4.3°C 36% 6.3 mph NE10.1 kmh NE 13.0 mph20.9 kmh 30.57 in1035.2 mb 0.00 in0.0 mm 0.00 in0.0 mm 0.00 in0.0 mm
08:30 PM 50.5°F10.3°C 25.2°F-3.8°C 37% 3.8 mph NE6.1 kmh NE 13.0 mph20.9 kmh 30.57 in1035.2 mb 0.00 in0.0 mm 0.00 in0.0 mm 0.00 in0.0 mm
08:35 PM 50.4°F10.2°C 24.4°F-4.2°C 36% 5.8 mph ENE9.3 kmh ENE 13.0 mph20.9 kmh 30.57 in1035.2 mb 0.00 in0.0 mm 0.00 in0.0 mm 0.00 in0.0 mm
08:40 PM 50.4°F10.2°C 24.2°F-4.3°C 36% 5.8 mph NE9.3 kmh NE 13.0 mph20.9 kmh 30.57 in1035.2 mb 0.00 in0.0 mm 0.00 in0.0 mm 0.00 in0.0 mm
08:45 PM 50.3°F10.2°C 24.3°F-4.3°C 36% 4.6 mph ENE7.4 kmh ENE 13.0 mph20.9 kmh 30.57 in1035.2 mb 0.00 in0.0 mm 0.00 in0.0 mm 0.00 in0.0 mm
08:50 PM 50.3°F10.2°C 24.1°F-4.4°C 36% 5.3 mph ENE8.5 kmh ENE 13.0 mph20.9 kmh 30.57 in1035.2 mb 0.00 in0.0 mm 0.00 in0.0 mm 0.00 in0.0 mm
08:55 PM 50.2°F10.1°C 24.0°F-4.4°C 36% 4.6 mph NE7.4 kmh NE 13.0 mph20.9 kmh 30.58 in1035.6 mb 0.00 in0.0 mm 0.00 in0.0 mm 0.00 in0.0 mm
09:00 PM 50.1°F10.1°C 23.5°F-4.7°C 35% 6.7 mph NE10.8 kmh NE 14.0 mph22.5 kmh 30.58 in1035.6 mb 0.00 in0.0 mm 0.00 in0.0 mm 0.00 in0.0 mm
09:05 PM 50.1°F10.1°C 23.9°F-4.5°C 36% 4.3 mph NE6.9 kmh NE 14.0 mph22.5 kmh 30.58 in1035.6 mb 0.00 in0.0 mm 0.00 in0.0 mm 0.00 in0.0 mm
09:10 PM 50.0°F10.0°C 24.1°F-4.4°C 36% 4.2 mph NE6.8 kmh NE 14.0 mph22.5 kmh 30.58 in1035.6 mb 0.00 in0.0 mm 0.00 in0.0 mm 0.00 in0.0 mm
09:15 PM 50.0°F10.0°C 23.9°F-4.5°C 36% 5.4 mph ENE8.7 kmh ENE 14.0 mph22.5 kmh 30.58 in1035.6 mb 0.00 in0.0 mm 0.00 in0.0 mm 0.00 in0.0 mm
09:20 PM 49.9°F9.9°C 23.3°F-4.8°C 35% 6.8 mph ENE10.9 kmh ENE 13.0 mph20.9 kmh 30.58 in1035.6 mb 0.00 in0.0 mm 0.00 in0.0 mm 0.00 in0.0 mm
09:25 PM 49.9°F9.9°C 23.1°F-4.9°C 35% 6.5 mph ENE10.5 kmh ENE 13.0 mph20.9 kmh 30.58 in1035.6 mb 0.00 in0.0 mm 0.00 in0.0 mm 0.00 in0.0 mm
09:30 PM 49.8°F9.9°C 23.0°F-5.0°C 35% 6.7 mph NE10.8 kmh NE 16.0 mph25.7 kmh 30.58 in1035.6 mb 0.00 in0.0 mm 0.00 in0.0 mm 0.00 in0.0 mm
09:35 PM 49.7°F9.8°C 23.6°F-4.7°C 36% 4.4 mph NE7.1 kmh NE 16.0 mph25.7 kmh 30.58 in1035.6 mb 0.00 in0.0 mm 0.00 in0.0 mm 0.00 in0.0 mm
09:40 PM 49.6°F9.8°C 23.5°F-4.7°C 36% 5.3 mph ENE8.5 kmh ENE 16.0 mph25.7 kmh 30.58 in1035.6 mb 0.00 in0.0 mm 0.00 in0.0 mm 0.00 in0.0 mm
09:45 PM 49.4°F9.7°C 23.3°F-4.8°C 36% 6.5 mph ENE10.5 kmh ENE 14.0 mph22.5 kmh 30.57 in1035.2 mb 0.00 in0.0 mm 0.00 in0.0 mm 0.00 in0.0 mm
09:49 PM 49.3°F9.6°C 23.4°F-4.8°C 36% 8.3 mph ENE13.4 kmh ENE 17.0 mph27.4 kmh 30.57 in1035.2 mb 0.00 in0.0 mm 0.00 in0.0 mm 0.00 in0.0 mm
09:54 PM 49.1°F9.5°C 23.1°F-4.9°C 36% 6.4 mph ENE10.3 kmh ENE 17.0 mph27.4 kmh 30.57 in1035.2 mb 0.00 in0.0 mm 0.00 in0.0 mm 0.00 in0.0 mm
09:59 PM 48.9°F9.4°C 22.9°F-5.1°C 36% 8.1 mph ENE13.0 kmh ENE 17.0 mph27.4 kmh 30.57 in1035.2 mb 0.00 in0.0 mm 0.00 in0.0 mm 0.00 in0.0 mm
10:04 PM 48.8°F9.3°C 22.8°F-5.1°C 36% 8.0 mph ENE12.9 kmh ENE 15.0 mph24.1 kmh 30.57 in1035.2 mb 0.00 in0.0 mm 0.00 in0.0 mm 0.00 in0.0 mm
10:09 PM 48.7°F9.3°C 22.7°F-5.2°C 36% 7.7 mph NE12.4 kmh NE 14.0 mph22.5 kmh 30.58 in1035.6 mb 0.00 in0.0 mm 0.00 in0.0 mm 0.00 in0.0 mm
10:14 PM 48.5°F9.2°C 23.2°F-4.9°C 37% 5.3 mph ENE8.5 kmh ENE 14.0 mph22.5 kmh 30.57 in1035.2 mb 0.00 in0.0 mm 0.00 in0.0 mm 0.00 in0.0 mm
10:19 PM 48.3°F9.1°C 23.0°F-5.0°C 37% 6.9 mph ENE11.1 kmh ENE 14.0 mph22.5 kmh 30.58 in1035.6 mb 0.00 in0.0 mm 0.00 in0.0 mm 0.00 in0.0 mm
10:24 PM 48.2°F9.0°C 22.9°F-5.1°C 37% 6.2 mph NE10.0 kmh NE 13.0 mph20.9 kmh 30.58 in1035.6 mb 0.00 in0.0 mm 0.00 in0.0 mm 0.00 in0.0 mm
10:29 PM 48.1°F8.9°C 22.8°F-5.1°C 37% 7.8 mph NE12.6 kmh NE 13.0 mph20.9 kmh 30.58 in1035.6 mb 0.00 in0.0 mm 0.00 in0.0 mm 0.00 in0.0 mm
10:34 PM 47.9°F8.8°C 23.3°F-4.8°C 38% 5.8 mph NE9.3 kmh NE 13.0 mph20.9 kmh 30.58 in1035.6 mb 0.00 in0.0 mm 0.00 in0.0 mm 0.00 in0.0 mm
10:39 PM 47.8°F8.8°C 23.2°F-4.9°C 38% 6.4 mph ENE10.3 kmh ENE 13.0 mph20.9 kmh 30.57 in1035.2 mb 0.00 in0.0 mm 0.00 in0.0 mm 0.00 in0.0 mm
10:44 PM 47.7°F8.7°C 23.1°F-4.9°C 38% 6.4 mph ENE10.3 kmh ENE 13.0 mph20.9 kmh 30.57 in1035.2 mb 0.00 in0.0 mm 0.00 in0.0 mm 0.00 in0.0 mm
10:49 PM 47.5°F8.6°C 23.1°F-4.9°C 38% 5.7 mph ENE9.2 kmh ENE 13.0 mph20.9 kmh 30.57 in1035.2 mb 0.00 in0.0 mm 0.00 in0.0 mm 0.00 in0.0 mm
10:54 PM 47.4°F8.6°C 23.5°F-4.7°C 39% 5.6 mph ENE9.0 kmh ENE 13.0 mph20.9 kmh 30.58 in1035.6 mb 0.00 in0.0 mm 0.00 in0.0 mm 0.00 in0.0 mm
10:59 PM 47.3°F8.5°C 23.4°F-4.8°C 39% 3.8 mph NE6.1 kmh NE 13.0 mph20.9 kmh 30.58 in1035.6 mb 0.00 in0.0 mm 0.00 in0.0 mm 0.00 in0.0 mm
11:04 PM 47.1°F8.4°C 23.2°F-4.9°C 39% 4.8 mph NE7.7 kmh NE 11.0 mph17.7 kmh 30.58 in1035.6 mb 0.00 in0.0 mm 0.00 in0.0 mm 0.00 in0.0 mm
11:09 PM 46.9°F8.3°C 23.6°F-4.7°C 40% 6.0 mph ENE9.7 kmh ENE 11.0 mph17.7 kmh 30.57 in1035.2 mb 0.00 in0.0 mm 0.00 in0.0 mm 0.00 in0.0 mm
11:14 PM 46.8°F8.2°C 23.5°F-4.7°C 40% 7.0 mph ENE11.3 kmh ENE 11.0 mph17.7 kmh 30.57 in1035.2 mb 0.00 in0.0 mm 0.00 in0.0 mm 0.00 in0.0 mm
11:19 PM 46.6°F8.1°C 24.0°F-4.4°C 41% 7.0 mph ENE11.3 kmh ENE 11.0 mph17.7 kmh 30.57 in1035.2 mb 0.00 in0.0 mm 0.00 in0.0 mm 0.00 in0.0 mm
11:24 PM 46.5°F8.1°C 23.9°F-4.5°C 41% 6.1 mph ENE9.8 kmh ENE 11.0 mph17.7 kmh 30.57 in1035.2 mb 0.00 in0.0 mm 0.00 in0.0 mm 0.00 in0.0 mm
11:29 PM 46.4°F8.0°C 24.5°F-4.2°C 42% 6.1 mph NE9.8 kmh NE 13.0 mph20.9 kmh 30.57 in1035.2 mb 0.00 in0.0 mm 0.00 in0.0 mm 0.00 in0.0 mm
11:34 PM 46.2°F7.9°C 24.2°F-4.3°C 42% 6.8 mph NE10.9 kmh NE 13.0 mph20.9 kmh 30.57 in1035.2 mb 0.00 in0.0 mm 0.00 in0.0 mm 0.00 in0.0 mm
11:39 PM 46.1°F7.8°C 24.1°F-4.4°C 42% 5.2 mph NE8.4 kmh NE 13.0 mph20.9 kmh 30.57 in1035.2 mb 0.00 in0.0 mm 0.00 in0.0 mm 0.00 in0.0 mm
11:44 PM 46.0°F7.8°C 24.0°F-4.4°C 42% 4.6 mph ENE7.4 kmh ENE 13.0 mph20.9 kmh 30.57 in1035.2 mb 0.00 in0.0 mm 0.00 in0.0 mm 0.00 in0.0 mm
11:49 PM 45.9°F7.7°C 24.5°F-4.2°C 43% 6.9 mph ENE11.1 kmh ENE 13.0 mph20.9 kmh 30.57 in1035.2 mb 0.00 in0.0 mm 0.00 in0.0 mm 0.00 in0.0 mm
11:54 PM 45.7°F7.6°C 24.3°F-4.3°C 43% 5.0 mph ENE8.0 kmh ENE 11.0 mph17.7 kmh 30.57 in1035.2 mb 0.00 in0.0 mm 0.00 in0.0 mm 0.00 in0.0 mm
11:59 PM 45.7°F7.6°C 24.3°F-4.3°C 43% 5.2 mph ENE8.4 kmh ENE 11.0 mph17.7 kmh 30.57 in1035.2 mb 0.00 in0.0 mm 0.00 in0.0 mm 0.00 in0.0 mm